createdAt,value
2018-07-22T00:01:47.635Z,98624.48
2018-07-22T00:04:16.626Z,98626.38
2018-07-22T00:06:45.601Z,98622.56
2018-07-22T00:09:14.838Z,98624.75
2018-07-22T00:11:43.782Z,98627.20
2018-07-22T00:14:12.914Z,98617.88
2018-07-22T00:16:41.967Z,98620.91
2018-07-22T00:19:11.151Z,98615.69
2018-07-22T00:21:40.160Z,98621.98
2018-07-22T00:24:09.350Z,98617.55
2018-07-22T00:26:38.405Z,98621.66
2018-07-22T00:29:07.411Z,98616.44
2018-07-22T00:31:36.390Z,98619.17
2018-07-22T00:34:05.568Z,98619.47
2018-07-22T00:36:34.538Z,98615.92
2018-07-22T00:39:03.674Z,98618.09
2018-07-22T00:41:32.649Z,98624.40
2018-07-22T00:44:01.734Z,98619.17
2018-07-22T00:46:30.856Z,98615.33
2018-07-22T00:48:59.797Z,98612.62
2018-07-22T00:51:28.929Z,98611.51
2018-07-22T00:53:57.952Z,98607.14
2018-07-22T00:56:26.896Z,98601.98
2018-07-22T00:58:55.868Z,98597.89
2018-07-22T01:01:24.868Z,98602.83
2018-07-22T01:03:53.902Z,98610.21
2018-07-22T01:06:22.982Z,98608.02
2018-07-22T01:08:52.037Z,98614.55
2018-07-22T01:11:20.972Z,98609.07
2018-07-22T01:13:49.909Z,98614.00
2018-07-22T01:16:19.053Z,98617.00
2018-07-22T01:18:48.127Z,98622.47
2018-07-22T01:21:17.186Z,98623.33
2018-07-22T01:23:46.183Z,98619.18
2018-07-22T01:26:15.112Z,98626.33
2018-07-22T01:28:44.000Z,98629.61
2018-07-22T01:31:13.067Z,98618.66
2018-07-22T01:33:42.108Z,98616.18
2018-07-22T01:36:11.109Z,98611.52
2018-07-22T01:38:40.069Z,98610.99
2018-07-22T01:41:09.255Z,98608.52
2018-07-22T01:43:38.338Z,98601.11
2018-07-22T01:46:07.425Z,98595.14
2018-07-22T01:48:36.450Z,98594.84
2018-07-22T01:51:05.412Z,98595.69
2018-07-22T01:53:34.370Z,98594.00
2018-07-22T01:56:03.434Z,98586.59
2018-07-22T01:58:32.514Z,98595.59
2018-07-22T02:01:01.542Z,98589.84
2018-07-22T02:03:30.515Z,98585.74
2018-07-22T02:05:59.545Z,98585.48
2018-07-22T02:08:28.585Z,98585.48
2018-07-22T02:10:57.549Z,98579.19
2018-07-22T02:13:26.496Z,98586.04
2018-07-22T02:15:55.514Z,98591.52
2018-07-22T02:18:24.544Z,98588.73
2018-07-22T02:20:53.633Z,98595.57
2018-07-22T02:23:22.652Z,98591.48
2018-07-22T02:25:51.691Z,98589.29
2018-07-22T02:28:20.749Z,98583.27
2018-07-22T02:30:49.752Z,98586.86
2018-07-22T02:33:18.780Z,98595.06
2018-07-22T02:35:47.703Z,98592.02
2018-07-22T02:38:16.964Z,98598.83
2018-07-22T02:40:45.935Z,98596.38
2018-07-22T02:43:15.000Z,98593.91
2018-07-22T02:45:44.011Z,98596.65
2018-07-22T02:48:12.976Z,98588.99
2018-07-22T02:50:42.099Z,98588.99
2018-07-22T02:53:11.137Z,98581.33
2018-07-22T02:55:40.125Z,98586.55
2018-07-22T02:58:09.143Z,98581.89
2018-07-22T03:00:38.153Z,98585.23
2018-07-22T03:03:07.117Z,98582.45
2018-07-22T03:05:36.140Z,98576.97
2018-07-22T03:08:05.220Z,98577.53
2018-07-22T03:10:34.246Z,98580.82
2018-07-22T03:13:03.170Z,98579.74
2018-07-22T03:15:32.325Z,98579.45
2018-07-22T03:18:01.377Z,98581.14
2018-07-22T03:20:30.478Z,98581.70
2018-07-22T03:22:59.515Z,98580.34
2018-07-22T03:25:28.494Z,98588.02
2018-07-22T03:27:57.450Z,98590.47
2018-07-22T03:30:26.469Z,98592.11
2018-07-22T03:32:55.400Z,98592.69
2018-07-22T03:35:24.329Z,98596.51
2018-07-22T03:37:53.476Z,98599.48
2018-07-22T03:40:22.438Z,98599.24
2018-07-22T03:42:51.394Z,98598.69
2018-07-22T03:45:20.365Z,98602.80
2018-07-22T03:47:49.371Z,98602.80
2018-07-22T03:50:18.384Z,98602.55
2018-07-22T03:52:47.344Z,98597.31
2018-07-22T03:55:16.286Z,98598.70
2018-07-22T03:57:45.385Z,98602.53
2018-07-22T04:00:14.329Z,98599.23
2018-07-22T04:02:43.335Z,98594.30
2018-07-22T04:05:12.342Z,98601.72
2018-07-22T04:07:41.396Z,98609.36
2018-07-22T04:10:10.500Z,98615.63
2018-07-22T04:12:39.561Z,98609.91
2018-07-22T04:15:08.632Z,98606.63
2018-07-22T04:17:37.825Z,98607.44
2018-07-22T04:20:06.921Z,98605.55
2018-07-22T04:22:36.009Z,98613.21
2018-07-22T04:25:05.192Z,98610.20
2018-07-22T04:27:34.352Z,98611.60
2018-07-22T04:30:03.512Z,98612.97
2018-07-22T04:32:32.381Z,98607.20
2018-07-22T04:35:01.306Z,98612.67
2018-07-22T04:37:30.301Z,98611.30
2018-07-22T04:39:59.287Z,98608.83
2018-07-22T04:42:28.300Z,98610.48
2018-07-22T04:44:57.368Z,98610.78
2018-07-22T04:47:26.338Z,98612.42
2018-07-22T04:49:55.232Z,98602.54
2018-07-22T04:52:24.145Z,98605.27
2018-07-22T04:54:53.208Z,98597.27
2018-07-22T04:57:22.245Z,98593.16
2018-07-22T04:59:51.283Z,98605.67
2018-07-22T05:02:20.443Z,98600.23
2018-07-22T05:04:49.505Z,98605.61
2018-07-22T05:07:18.540Z,98597.78
2018-07-22T05:09:47.600Z,98600.53
2018-07-22T05:12:16.626Z,98597.83
2018-07-22T05:14:45.673Z,98597.84
2018-07-22T05:17:14.604Z,98594.76
2018-07-22T05:19:43.550Z,98592.88
2018-07-22T05:22:12.492Z,98596.73
2018-07-22T05:24:41.498Z,98593.72
2018-07-22T05:27:10.535Z,98593.09
2018-07-22T05:29:39.602Z,98598.59
2018-07-22T05:32:08.471Z,98598.34
2018-07-22T05:34:37.353Z,98594.67
2018-07-22T05:37:06.324Z,98603.15
2018-07-22T05:39:35.285Z,98607.32
2018-07-22T05:42:04.397Z,98602.14
2018-07-22T05:44:33.475Z,98602.68
2018-07-22T05:47:02.428Z,98596.41
2018-07-22T05:49:31.381Z,98593.92
2018-07-22T05:52:00.349Z,98596.38
2018-07-22T05:54:29.308Z,98599.07
2018-07-22T05:56:58.488Z,98594.38
2018-07-22T05:59:27.584Z,98591.63
2018-07-22T06:01:56.650Z,98592.08
2018-07-22T06:04:25.598Z,98594.77
2018-07-22T06:06:54.696Z,98592.98
2018-07-22T06:09:23.655Z,98589.19
2018-07-22T06:11:53.025Z,98589.17
2018-07-22T06:14:22.103Z,98584.55
2018-07-22T06:16:51.064Z,98580.97
2018-07-22T06:19:19.989Z,98585.45
2018-07-22T06:21:49.149Z,98582.73
2018-07-22T06:24:18.157Z,98582.16
2018-07-22T06:26:47.189Z,98579.39
2018-07-22T06:29:16.270Z,98578.48
2018-07-22T06:31:45.379Z,98583.39
2018-07-22T06:34:14.836Z,98575.42
2018-07-22T06:36:43.870Z,98572.00
2018-07-22T06:39:13.901Z,98567.49
2018-07-22T06:41:44.114Z,98576.92
2018-07-22T06:44:13.227Z,98575.05
2018-07-22T06:46:42.200Z,98580.72
2018-07-22T06:49:11.291Z,98580.95
2018-07-22T06:51:40.230Z,98583.23
2018-07-22T06:54:09.387Z,98588.64
2018-07-22T06:56:38.623Z,98590.30
2018-07-22T06:59:07.722Z,98588.88
2018-07-22T07:01:36.844Z,98585.20
2018-07-22T07:04:05.926Z,98574.42
2018-07-22T07:06:35.059Z,98577.45
2018-07-22T07:09:04.344Z,98566.42
2018-07-22T07:11:33.470Z,98568.13
2018-07-22T07:14:02.653Z,98571.44
2018-07-22T07:16:31.517Z,98569.70
2018-07-22T07:19:00.572Z,98561.67
2018-07-22T07:21:29.490Z,98563.23
2018-07-22T07:23:58.701Z,98566.95
2018-07-22T07:26:27.662Z,98566.73
2018-07-22T07:28:56.637Z,98560.17
2018-07-22T07:31:25.645Z,98558.90
2018-07-22T07:33:54.774Z,98562.47
2018-07-22T07:36:23.765Z,98564.48
2018-07-22T07:38:52.939Z,98551.02
2018-07-22T07:41:21.896Z,98554.03
2018-07-22T07:43:50.973Z,98557.22
2018-07-22T07:46:19.972Z,98556.61
2018-07-22T07:48:49.023Z,98551.78
2018-07-22T07:51:18.028Z,98549.25
2018-07-22T07:53:47.081Z,98549.72
2018-07-22T07:56:16.069Z,98556.95
2018-07-22T07:58:45.156Z,98544.15
2018-07-22T08:01:14.252Z,98540.34
2018-07-22T08:03:43.236Z,98545.61
2018-07-22T08:06:12.291Z,98537.66
2018-07-22T08:08:41.320Z,98543.20
2018-07-22T08:11:10.359Z,98543.86
2018-07-22T08:13:39.392Z,98542.69
2018-07-22T08:16:08.331Z,98527.09
2018-07-22T08:18:37.269Z,98525.00
2018-07-22T08:21:06.326Z,98521.86
2018-07-22T08:23:35.291Z,98519.81
2018-07-22T08:26:04.658Z,98523.12
2018-07-22T08:28:44.453Z,98525.67
2018-07-22T08:31:13.507Z,98525.52
2018-07-22T08:33:42.582Z,98520.63
2018-07-22T08:36:11.640Z,98515.69
2018-07-22T08:38:40.664Z,98512.53
2018-07-22T08:41:09.681Z,98513.13
2018-07-22T08:43:38.742Z,98507.56
2018-07-22T08:46:07.719Z,98499.70
2018-07-22T08:48:36.717Z,98495.29
2018-07-22T08:51:05.738Z,98495.03
2018-07-22T08:53:34.720Z,98491.56
2018-07-22T08:56:03.764Z,98492.70
2018-07-22T08:58:32.813Z,98498.45
2018-07-22T09:01:01.912Z,98499.70
2018-07-22T09:03:30.927Z,98493.53
2018-07-22T09:05:59.968Z,98492.41
2018-07-22T09:08:29.050Z,98484.28
2018-07-22T09:10:58.096Z,98482.16
2018-07-22T09:13:27.023Z,98477.89
2018-07-22T09:15:56.014Z,98472.20
2018-07-22T09:18:25.052Z,98462.75
2018-07-22T09:20:54.006Z,98457.02
2018-07-22T09:23:23.074Z,98453.31
2018-07-22T09:25:52.043Z,98443.40
2018-07-22T09:28:21.033Z,98438.08
2018-07-22T09:30:50.018Z,98433.22
2018-07-22T09:33:18.973Z,98433.67
2018-07-22T09:35:48.214Z,98434.25
2018-07-22T09:38:17.150Z,98441.30
2018-07-22T09:40:46.202Z,98429.33
2018-07-22T09:43:15.197Z,98419.62
2018-07-22T09:45:44.189Z,98414.74
2018-07-22T09:48:13.105Z,98417.97
2018-07-22T09:50:42.129Z,98405.28
2018-07-22T09:53:11.132Z,98405.72
2018-07-22T09:55:40.147Z,98412.52
2018-07-22T09:58:09.081Z,98408.58
2018-07-22T10:00:43.098Z,98404.31
2018-07-22T10:03:12.160Z,98396.66
2018-07-22T10:05:41.168Z,98395.86
2018-07-22T10:08:10.446Z,98392.49
2018-07-22T10:10:39.549Z,98385.09
2018-07-22T10:13:09.047Z,98380.77
2018-07-22T10:15:38.109Z,98384.32
2018-07-22T10:18:07.204Z,98382.09
2018-07-22T10:20:36.185Z,98371.77
2018-07-22T10:23:05.176Z,98362.59
2018-07-22T10:25:34.144Z,98361.81
2018-07-22T10:28:03.917Z,98362.58
2018-07-22T10:30:32.866Z,98358.44
2018-07-22T10:33:01.757Z,98357.77
2018-07-22T10:35:30.807Z,98353.81
2018-07-22T10:38:00.301Z,98350.39
2018-07-22T10:40:29.206Z,98349.88
2018-07-22T10:42:59.179Z,98348.48
2018-07-22T10:45:28.615Z,98335.41
2018-07-22T10:47:57.758Z,98332.00
2018-07-22T10:50:26.714Z,98341.36
2018-07-22T10:52:56.286Z,98322.83
2018-07-22T10:55:25.650Z,98316.13
2018-07-22T10:57:55.152Z,98320.13
2018-07-22T11:00:24.409Z,98312.36
2018-07-22T11:02:53.369Z,98314.26
2018-07-22T11:05:22.283Z,98309.76
2018-07-22T11:07:51.207Z,98305.12
2018-07-22T11:10:20.083Z,98301.27
2018-07-22T11:12:48.964Z,98301.67
2018-07-22T11:15:17.921Z,98298.08
2018-07-22T11:17:46.810Z,98295.13
2018-07-22T11:20:15.723Z,98287.88
2018-07-22T11:22:44.958Z,98279.89
2018-07-22T11:25:14.041Z,98280.69
2018-07-22T11:27:42.881Z,98271.97
2018-07-22T11:30:12.253Z,98267.12
2018-07-22T11:32:41.153Z,98265.77
2018-07-22T11:35:10.064Z,98263.48
2018-07-22T11:37:39.051Z,98261.38
2018-07-22T11:40:09.206Z,98261.45
2018-07-22T11:42:38.185Z,98261.30
2018-07-22T11:45:07.073Z,98259.88
2018-07-22T11:47:36.386Z,98259.30
2018-07-22T11:50:05.612Z,98261.69
2018-07-22T11:52:34.565Z,98246.73
2018-07-22T11:55:03.438Z,98244.83
2018-07-22T11:57:32.346Z,98246.55
2018-07-22T12:00:01.334Z,98244.05
2018-07-22T12:02:30.531Z,98229.06
2018-07-22T12:04:59.416Z,98230.81
2018-07-22T12:07:28.272Z,98226.31
2018-07-22T12:09:57.213Z,98224.27
2018-07-22T12:12:26.112Z,98213.18
2018-07-22T12:14:55.001Z,98219.02
2018-07-22T12:17:23.924Z,98202.72
2018-07-22T12:19:52.976Z,98205.36
2018-07-22T12:22:22.079Z,98204.50
2018-07-22T12:24:50.987Z,98204.32
2018-07-22T12:27:19.834Z,98199.70
2018-07-22T12:29:48.779Z,98192.93
2018-07-22T12:32:17.713Z,98193.83
2018-07-22T12:34:46.808Z,98191.06
2018-07-22T12:37:15.715Z,98189.88
2018-07-22T12:39:44.671Z,98180.56
2018-07-22T12:42:13.618Z,98180.11
2018-07-22T12:44:42.596Z,98178.92
2018-07-22T12:47:11.596Z,98177.87
2018-07-22T12:49:40.477Z,98175.78
2018-07-22T12:52:09.461Z,98172.83
2018-07-22T12:54:38.315Z,98162.83
2018-07-22T12:57:07.249Z,98164.85
2018-07-22T12:59:36.278Z,98163.84
2018-07-22T13:02:05.235Z,98158.29
2018-07-22T13:04:34.272Z,98160.66
2018-07-22T13:07:03.176Z,98152.32
2018-07-22T13:09:32.112Z,98150.34
2018-07-22T13:12:00.910Z,98157.13
2018-07-22T13:14:29.896Z,98144.03
2018-07-22T13:16:58.740Z,98141.23
2018-07-22T13:19:27.603Z,98132.77
2018-07-22T13:21:56.522Z,98124.39
2018-07-22T13:24:25.537Z,98109.11
2018-07-22T13:26:54.492Z,98109.45
2018-07-22T13:29:23.414Z,98109.91
2018-07-22T13:31:52.321Z,98116.49
2018-07-22T13:34:21.197Z,98126.28
2018-07-22T13:36:50.197Z,98124.97
2018-07-22T13:39:19.202Z,98117.84
2018-07-22T13:41:48.161Z,98115.04
2018-07-22T13:44:17.134Z,98115.61
2018-07-22T13:46:46.132Z,98114.16
2018-07-22T13:49:15.160Z,98114.09
2018-07-22T13:51:44.069Z,98112.78
2018-07-22T13:54:13.043Z,98115.37
2018-07-22T13:56:42.066Z,98120.14
2018-07-22T13:59:10.981Z,98119.10
2018-07-22T14:01:39.858Z,98118.94
2018-07-22T14:04:08.805Z,98106.73
2018-07-22T14:06:37.755Z,98106.88
2018-07-22T14:09:08.772Z,98092.10
2018-07-22T14:11:37.725Z,98089.09
2018-07-22T14:14:06.728Z,98084.23
2018-07-22T14:16:35.832Z,98081.95
2018-07-22T14:19:04.897Z,98081.30
2018-07-22T14:21:33.893Z,98086.83
2018-07-22T14:24:02.938Z,98090.88
2018-07-22T14:26:31.883Z,98097.56
2018-07-22T14:29:00.844Z,98090.78
2018-07-22T14:31:29.763Z,98088.42
2018-07-22T14:33:58.780Z,98089.83
2018-07-22T14:36:27.958Z,98085.34
2018-07-22T14:38:56.940Z,98088.87
2018-07-22T14:41:25.901Z,98092.63
2018-07-22T14:43:54.864Z,98089.02
2018-07-22T14:46:23.764Z,98083.02
2018-07-22T14:48:52.728Z,98062.84
2018-07-22T14:51:21.953Z,98066.16
2018-07-22T14:53:50.895Z,98069.08
2018-07-22T14:56:19.809Z,98066.92
2018-07-22T14:58:48.818Z,98062.40
2018-07-22T15:01:17.776Z,98051.19
2018-07-22T15:03:46.652Z,98041.84
2018-07-22T15:06:15.605Z,98047.42
2018-07-22T15:08:44.454Z,98057.78
2018-07-22T15:11:13.421Z,98060.30
2018-07-22T15:13:42.446Z,98051.69
2018-07-22T15:16:11.400Z,98045.88
2018-07-22T15:18:40.368Z,98052.47
2018-07-22T15:21:09.289Z,98042.22
2018-07-22T15:23:38.147Z,98041.56
2018-07-22T15:26:07.137Z,98034.25
2018-07-22T15:28:36.189Z,98038.29
2018-07-22T15:31:05.259Z,98038.68
2018-07-22T15:33:34.222Z,98040.69
2018-07-22T15:36:03.083Z,98038.46
2018-07-22T15:38:31.936Z,98033.13
2018-07-22T15:41:00.902Z,98029.39
2018-07-22T15:43:29.854Z,98018.09
2018-07-22T15:45:58.730Z,98012.20
2018-07-22T15:48:27.625Z,98014.96
2018-07-22T15:50:56.544Z,98011.37
2018-07-22T15:53:25.456Z,98006.86
2018-07-22T15:55:54.458Z,98000.24
2018-07-22T15:58:23.510Z,97996.97
2018-07-22T16:00:52.371Z,98007.75
2018-07-22T16:03:21.362Z,98020.81
2018-07-22T16:05:50.285Z,98027.37
2018-07-22T16:08:19.309Z,98050.92
2018-07-22T16:10:48.201Z,98034.59
2018-07-22T16:13:17.160Z,98035.00
2018-07-22T16:15:46.006Z,98046.88
2018-07-22T16:18:14.954Z,98054.39
2018-07-22T16:20:43.913Z,98058.17
2018-07-22T16:23:12.934Z,98088.83
2018-07-22T16:25:41.951Z,98055.78
2018-07-22T16:28:10.954Z,98042.83
2018-07-22T16:30:39.901Z,98055.72
2018-07-22T16:33:08.851Z,98067.38
2018-07-22T16:35:37.790Z,98078.30
2018-07-22T16:38:06.815Z,98080.23
2018-07-22T16:40:35.957Z,98097.34
2018-07-22T16:43:04.936Z,98103.73
2018-07-22T16:45:33.956Z,98114.28
2018-07-22T16:48:02.941Z,98105.30
2018-07-22T16:50:32.083Z,98105.75
2018-07-22T16:53:01.023Z,98099.44
2018-07-22T16:55:30.296Z,98086.41
2018-07-22T16:57:59.259Z,98089.82
2018-07-22T17:00:28.330Z,98096.94
2018-07-22T17:02:57.243Z,98095.52
2018-07-22T17:05:26.313Z,98106.52
2018-07-22T17:07:55.356Z,98124.64
2018-07-22T17:10:24.397Z,98126.00
2018-07-22T17:12:53.388Z,98126.70
2018-07-22T17:15:22.387Z,98135.52
2018-07-22T17:17:51.386Z,98138.41
2018-07-22T17:20:21.112Z,98139.53
2018-07-22T17:22:50.075Z,98155.34
2018-07-22T17:25:19.057Z,98157.64
2018-07-22T17:27:48.094Z,98162.48
2018-07-22T17:30:16.943Z,98165.45
2018-07-22T17:32:45.997Z,98169.02
2018-07-22T17:35:14.977Z,98158.47
2018-07-22T17:37:43.893Z,98158.59
2018-07-22T17:40:12.825Z,98166.98
2018-07-22T17:42:41.872Z,98173.56
2018-07-22T17:45:10.860Z,98178.81
2018-07-22T17:47:39.830Z,98189.66
2018-07-22T17:50:08.779Z,98212.30
2018-07-22T17:52:37.722Z,98214.86
2018-07-22T17:55:06.828Z,98218.95
2018-07-22T17:57:35.892Z,98210.84
2018-07-22T18:00:05.065Z,98229.28
2018-07-22T18:02:34.086Z,98242.10
2018-07-22T18:05:03.286Z,98232.51
2018-07-22T18:07:32.233Z,98217.52
2018-07-22T18:10:01.172Z,98211.95
2018-07-22T18:12:30.210Z,98223.42
2018-07-22T18:14:59.141Z,98220.08
2018-07-22T18:17:28.046Z,98223.32
2018-07-22T18:19:57.061Z,98228.23
2018-07-22T18:22:26.005Z,98228.33
2018-07-22T18:24:54.926Z,98231.95
2018-07-22T18:27:23.805Z,98219.55
2018-07-22T18:29:52.717Z,98212.22
2018-07-22T18:32:21.756Z,98219.65
2018-07-22T18:34:50.652Z,98215.10
2018-07-22T18:37:19.698Z,98208.78
2018-07-22T18:39:48.523Z,98209.81
2018-07-22T18:42:17.481Z,98216.20
2018-07-22T18:44:46.388Z,98209.91
2018-07-22T18:47:15.280Z,98213.80
2018-07-22T18:49:44.226Z,98209.61
2018-07-22T18:52:13.183Z,98213.41
2018-07-22T18:54:42.195Z,98209.09
2018-07-22T18:57:11.368Z,98203.59
2018-07-22T18:59:40.471Z,98202.03
2018-07-22T19:02:09.474Z,98209.44
2018-07-22T19:04:38.536Z,98219.20
2018-07-22T19:07:07.453Z,98218.00
2018-07-22T19:09:36.509Z,98212.26
2018-07-22T19:12:05.466Z,98210.42
2018-07-22T19:14:34.436Z,98212.66
2018-07-22T19:17:03.387Z,98221.66
2018-07-22T19:19:32.456Z,98224.16
2018-07-22T19:22:01.377Z,98223.42
2018-07-22T19:24:30.422Z,98219.27
2018-07-22T19:26:59.428Z,98213.31
2018-07-22T19:29:28.406Z,98208.73
2018-07-22T19:31:57.466Z,98214.34
2018-07-22T19:34:26.484Z,98220.39
2018-07-22T19:36:55.526Z,98213.28
2018-07-22T19:39:24.585Z,98234.88
2018-07-22T19:41:53.633Z,98239.13
2018-07-22T19:44:22.508Z,98241.47
2018-07-22T19:46:51.458Z,98240.42
2018-07-22T19:49:20.439Z,98242.70
2018-07-22T19:51:49.532Z,98247.55
2018-07-22T19:54:18.368Z,98252.80
2018-07-22T19:56:47.335Z,98255.33
2018-07-22T19:59:16.283Z,98268.78
2018-07-22T20:01:45.303Z,98276.08
2018-07-22T20:04:15.362Z,98291.66
2018-07-22T20:06:44.947Z,98291.57
2018-07-22T20:09:14.784Z,98303.31
2018-07-22T20:11:44.269Z,98306.86
2018-07-22T20:14:13.175Z,98309.62
2018-07-22T20:16:42.083Z,98308.16
2018-07-22T20:19:11.051Z,98304.52
2018-07-22T20:21:40.162Z,98298.04
2018-07-22T20:24:09.110Z,98284.50
2018-07-22T20:26:37.987Z,98259.48
2018-07-22T20:29:06.840Z,98247.30
2018-07-22T20:31:35.811Z,98250.95
2018-07-22T20:34:04.800Z,98271.22
2018-07-22T20:36:33.752Z,98281.91
2018-07-22T20:39:02.741Z,98269.84
2018-07-22T20:41:31.900Z,98267.86
2018-07-22T20:44:00.856Z,98274.78
2018-07-22T20:46:29.784Z,98272.47
2018-07-22T20:48:58.658Z,98270.00
2018-07-22T20:51:27.662Z,98273.14
2018-07-22T20:53:56.613Z,98280.83
2018-07-22T20:56:25.550Z,98290.20
2018-07-22T20:58:54.499Z,98288.23
2018-07-22T21:01:23.460Z,98297.00
2018-07-22T21:03:52.653Z,98309.13
2018-07-22T21:06:21.536Z,98320.80
2018-07-22T21:08:50.364Z,98309.37
2018-07-22T21:11:19.231Z,98322.23
2018-07-22T21:13:48.112Z,98325.75
2018-07-22T21:16:17.248Z,98316.63
2018-07-22T21:18:46.261Z,98298.77
2018-07-22T21:21:16.835Z,98291.55
2018-07-22T21:23:45.825Z,98287.27
2018-07-22T21:26:14.715Z,98298.27
2018-07-22T21:28:43.561Z,98305.17
2018-07-22T21:31:12.399Z,98299.64
2018-07-22T21:33:41.343Z,98288.16
2018-07-22T21:36:10.269Z,98275.11
2018-07-22T21:38:39.170Z,98262.41
2018-07-22T21:41:08.105Z,98265.41
2018-07-22T21:43:36.897Z,98247.20
2018-07-22T21:46:05.770Z,98252.41
2018-07-22T21:48:34.702Z,98238.73
2018-07-22T21:51:03.654Z,98244.79
2018-07-22T21:53:32.529Z,98241.16
2018-07-22T21:56:01.383Z,98239.64
2018-07-22T21:58:30.410Z,98241.63
2018-07-22T22:00:59.306Z,98243.92
2018-07-22T22:03:28.204Z,98258.24
2018-07-22T22:05:57.074Z,98256.95
2018-07-22T22:08:26.052Z,98263.14
2018-07-22T22:10:54.966Z,98258.98
2018-07-22T22:13:23.823Z,98252.62
2018-07-22T22:15:52.728Z,98248.42
2018-07-22T22:18:21.607Z,98250.30
2018-07-22T22:20:50.539Z,98244.62
2018-07-22T22:23:19.499Z,98232.47
2018-07-22T22:25:48.443Z,98233.80
2018-07-22T22:28:17.787Z,98213.14
2018-07-22T22:30:46.704Z,98209.17
2018-07-22T22:33:15.583Z,98213.02
2018-07-22T22:35:44.445Z,98211.61
2018-07-22T22:38:13.413Z,98213.30
2018-07-22T22:40:42.322Z,98217.89
2018-07-22T22:43:11.167Z,98215.20
2018-07-22T22:45:40.005Z,98207.78
2018-07-22T22:48:08.991Z,98215.53
2018-07-22T22:50:37.887Z,98222.41
2018-07-22T22:53:06.756Z,98216.66
2018-07-22T22:55:35.686Z,98230.59
2018-07-22T22:58:15.541Z,98235.72
2018-07-22T23:00:44.561Z,98240.17
2018-07-22T23:03:13.498Z,98231.61
2018-07-22T23:05:42.471Z,98237.66
2018-07-22T23:08:11.361Z,98236.01
2018-07-22T23:10:40.237Z,98241.85
2018-07-22T23:13:09.122Z,98247.16
2018-07-22T23:15:38.076Z,98254.48
2018-07-22T23:18:06.959Z,98252.53
2018-07-22T23:20:35.858Z,98249.05
2018-07-22T23:23:04.923Z,98241.41
2018-07-22T23:25:33.824Z,98249.04
2018-07-22T23:28:02.694Z,98236.59
2018-07-22T23:30:31.571Z,98240.87
2018-07-22T23:33:00.579Z,98241.04
2018-07-22T23:35:29.443Z,98237.79
2018-07-22T23:37:58.367Z,98243.55
2018-07-22T23:40:27.359Z,98247.15
2018-07-22T23:42:56.286Z,98248.23
2018-07-22T23:45:25.170Z,98246.66
2018-07-22T23:47:54.070Z,98248.16
2018-07-22T23:50:22.955Z,98261.92
2018-07-22T23:52:51.852Z,98261.69
2018-07-22T23:55:20.858Z,98262.51
2018-07-22T23:57:49.689Z,98269.69
